Terminal Aerodrome Forecast
Issued by NWS

Home | Current Version | Previous Version | Text Only | Print | Product List | Glossary On
Versions: 1 2 3 4 5 6 7 8 9 10 11 12 13 14 15 16 17 18
195
FTUS46 KLOX 141134
TAFSBA
TAF
KSBA 141134Z 1412/1512 VRB03KT 6SM FU SKC
     FM141600 16006KT 6SM FU SKC
     FM142200 23008KT 6SM FU SKC
     FM150200 VRB03KT 6SM FU SKC=

USA.gov is the U.S. government's official web portal to all federal, state and local government web resources and services.